Hanjin Ottawa — DANM — position and weather

sailwx.info

Track history (hours):
 
Tides and Currents Weather Stations Pressure Air Temp Water Temp Dewpoint Dewpoint Depression Visibility Wind Speed Wind Dir Waves Ship Positions

Hanjin Ottawa

Last reported at 2014-Sep-21 22:23 UTC. Time now 2014-Oct-01 06:12 UTC.
Position N 49°30' W 128°24'.
Warning: this ship's position is 9 days out of date.

Length 278.8 m; beam 40.3 m; draft 14 m.

Type: Ship. MMSI: 211378360.

Date/timePositionNaut miles runAvg speedWind from/ knotsBaromVisibWave heightAir tempDewpointWater temp
2014-Sep-21 22:23N 49°30' W 128°24'5718.2
2014-Sep-21 19:17N 49°06' W 127°05'1418.6
2014-Sep-21 18:32N 49°01' W 126°46'1919.0
2014-Sep-21 17:33N 48°53' W 126°20'1919.2
2014-Sep-21 16:34N 48°45' W 125°54'1918.6
2014-Sep-21 15:33N 48°37' W 125°28'1818.3
2014-Sep-21 14:33N 48°31' W 125°01'2019.7
2014-Sep-21 13:33N 48°27' W 124°33'2020.1
2014-Sep-21 12:33N 48°20' W 124°04'2020.0
2014-Sep-21 11:34N 48°16' W 123°35'1413.9
2014-Sep-21 10:33N 48°23' W 123°18'1818.1
2014-Sep-21 09:33N 48°41' W 123°16'1313.4
2014-Sep-21 08:33N 48°54' W 123°09'1919.2
2014-Sep-21 07:33N 49°11' W 123°22'1312.6
2014-Sep-21 06:33N 49°18' W 123°06'1 1.2
2014-Sep-21 05:33N 49°17' W 123°05'0 0.0
2014-Sep-21 04:32N 49°17' W 123°05'0 0.0
2014-Sep-21 03:32N 49°17' W 123°05'0 0.0
2014-Sep-21 02:31N 49°17' W 123°05'0 0.0
2014-Sep-21 01:31N 49°17' W 123°05'0 0.0
2014-Sep-21 00:33N 49°17' W 123°05'0 0.0
2014-Sep-20 23:33N 49°17' W 123°05'0 0.0
2014-Sep-20 22:32N 49°17' W 123°05'0 0.0
2014-Sep-20 21:32N 49°17' W 123°05'0 0.0
2014-Sep-20 20:31N 49°17' W 123°05'0 0.0
2014-Sep-20 19:31N 49°17' W 123°05'0 0.0
2014-Sep-20 18:31N 49°17' W 123°05'0 0.0
2014-Sep-20 17:33N 49°17' W 123°05'0 0.0
2014-Sep-20 16:33N 49°17' W 123°05'0 0.0
2014-Sep-20 15:32N 49°17' W 123°05'0 0.0
2014-Sep-20 14:32N 49°17' W 123°05'0 0.0
2014-Sep-20 13:31N 49°17' W 123°05'0 0.0
2014-Sep-20 12:31N 49°17' W 123°05'0 0.0
2014-Sep-20 11:31N 49°17' W 123°05'0 0.0
2014-Sep-20 10:33N 49°17' W 123°05'0 0.0
2014-Sep-20 09:33N 49°17' W 123°05'0 0.0
2014-Sep-20 08:32N 49°17' W 123°05'0 0.0
2014-Sep-20 07:32N 49°17' W 123°05'0 0.0
2014-Sep-20 06:31N 49°17' W 123°05'0 0.0
2014-Sep-20 05:31N 49°17' W 123°05'1 0.7
2014-Sep-20 04:34N 49°18' W 123°05'1010.5
2014-Sep-20 03:33N 49°12' W 123°19'1919.4
2014-Sep-20 02:33N 48°55' W 123°07'1414.1
2014-Sep-20 01:33N 48°42' W 123°15'1918.6
2014-Sep-20 00:33N 48°23' W 123°15'1211.3
2014-Sep-19 23:29N 48°15' W 123°28'1213.1
2014-Sep-19 22:33N 48°13' W 123°47'1414.0
2014-Sep-19 21:33N 48°17' W 124°07'1514.6
2014-Sep-19 20:34N 48°23' W 124°27'1211.7
2014-Sep-19 19:33N 48°28' W 124°43'1212.1
2014-Sep-19 18:33N 48°27' W 125°01'1312.4
2014-Sep-19 17:31N 48°15' W 125°07'12712.7
2014-Sep-19 07:33N 46°14' W 124°15'8 8.3
2014-Sep-19 06:34N 46°16' W 124°03'1110.7
2014-Sep-19 05:33N 46°12' W 123°48'1111.3
2014-Sep-19 04:33N 46°16' W 123°33'5 0.1
2014-Sep-17 02:27N 46°14' W 123°26'1011.2
2014-Sep-17 01:33N 46°15' W 123°40'1111.1
2014-Sep-17 00:33N 46°11' W 123°55'9 9.5
2014-Sep-16 23:33N 46°13' W 124°09'9 8.6
2014-Sep-16 22:32N 46°14' W 124°21'10913.3
2014-Sep-16 14:21N 47°56' W 125°17'10 9.1
2014-Sep-16 13:12N 48°06' W 125°14'6 8.7
2014-Sep-16 12:28N 48°12' W 125°12'8 9.0
2014-Sep-16 11:33N 48°21' W 125°09'9 9.0
2014-Sep-16 10:31N 48°29' W 125°03'6 6.6
2014-Sep-16 09:33N 48°31' W 124°54'1010.4
2014-Sep-16 08:33N 48°29' W 124°38'1111.2
2014-Sep-16 07:33N 48°25' W 124°23'1111.2
2014-Sep-16 06:33N 48°20' W 124°07'1211.6
2014-Sep-16 05:33N 48°17' W 123°50'1110.8
2014-Sep-16 04:33N 48°15' W 123°34'9 9.5
2014-Sep-16 03:33N 48°09' W 123°23'1515.4
2014-Sep-16 02:33N 48°12' W 123°00'1817.5
2014-Sep-16 01:33N 48°03' W 122°38'1818.6
2014-Sep-16 00:34N 47°47' W 122°26'1111.5
2014-Sep-15 23:34N 47°36' W 122°21'0 0.1
2014-Sep-15 22:32N 47°36' W 122°21'0 0.0
2014-Sep-15 17:24N 47°36' W 122°21'0 0.0
2014-Sep-15 16:33N 47°36' W 122°21'0 0.0
2014-Sep-15 15:32N 47°36' W 122°21'0 0.0
2014-Sep-15 14:32N 47°36' W 122°21'0 0.0
2014-Sep-15 13:31N 47°36' W 122°21'0 0.0
2014-Sep-15 12:31N 47°36' W 122°21'0 0.0
2014-Sep-15 11:28N 47°36' W 122°21'0 0.0
2014-Sep-15 10:30N 47°36' W 122°21'0 0.0
2014-Sep-15 09:21N 47°36' W 122°21'0 0.0
2014-Sep-15 08:29N 47°36' W 122°21'0 0.0
2014-Sep-15 07:32N 47°36' W 122°21'0 0.0
2014-Sep-15 06:28N 47°36' W 122°21'0 0.0
2014-Sep-15 05:28N 47°36' W 122°21'0 0.0
2014-Sep-15 04:31N 47°36' W 122°21'0 0.0
2014-Sep-15 03:33N 47°36' W 122°21'0 0.0
2014-Sep-15 02:27N 47°36' W 122°21'0 0.0
2014-Sep-15 01:26N 47°36' W 122°21'0 0.0
2014-Sep-15 00:32N 47°36' W 122°21'0 0.0
2014-Sep-14 23:33N 47°36' W 122°21'0 0.0
2014-Sep-14 22:30N 47°36' W 122°21'0 0.0
2014-Sep-14 21:33N 47°36' W 122°21'0 0.0
2014-Sep-14 20:33N 47°36' W 122°21'0 0.0
2014-Sep-14 19:31N 47°36' W 122°21'0 0.0
2014-Sep-14 18:30N 47°36' W 122°21'0 0.0
2014-Sep-14 17:33N 47°36' W 122°21'0 0.0
2014-Sep-14 16:27N 47°36' W 122°21'0 0.0
2014-Sep-14 15:05N 47°36' W 122°21'0 0.0
2014-Sep-14 14:23N 47°36' W 122°21'0 0.0
2014-Sep-14 13:31N 47°36' W 122°21'0 0.0
2014-Sep-14 12:31N 47°36' W 122°21'0 0.0
2014-Sep-14 11:33N 47°36' W 122°21'0 0.0
2014-Sep-14 10:27N 47°36' W 122°21'0 0.0
2014-Sep-14 09:32N 47°36' W 122°21'0 0.0
2014-Sep-14 08:32N 47°36' W 122°21'0 0.0
2014-Sep-14 07:32N 47°36' W 122°21'1 1.2
2014-Sep-14 06:33N 47°36' W 122°22'1211.7
2014-Sep-14 05:33N 47°47' W 122°27'1918.8
2014-Sep-14 04:34N 48°04' W 122°39'1919.5
2014-Sep-14 03:34N 48°12' W 123°06'1514.3
2014-Sep-14 02:33N 48°11' W 123°28'1211.8
2014-Sep-14 01:33N 48°13' W 123°45'5714.3
2014-Sep-13 21:32N 48°29' W 125°08'1313.6
2014-Sep-13 20:33N 48°36' W 125°25'1414.3
2014-Sep-13 19:33N 48°46' W 125°41'1414.0
2014-Sep-13 18:33N 48°55' W 125°57'1914.8
2014-Sep-13 17:15N 49°07' W 126°20'7 9.9
2014-Sep-13 16:33N 49°12' W 126°28'34815.0
2014-Sep-12 17:21N 54°16' W 131°02'911.2
2014-Sep-12 16:34N 54°17' W 130°47'1615.6
2014-Sep-12 15:33N 54°14' W 130°21'3 3.0
2014-Sep-12 14:32N 54°17' W 130°22'0 0.0
2014-Sep-11 22:29N 54°17' W 130°22'  
Track history (hours):
 
Tides and Currents Weather Stations Pressure Air Temp Water Temp Dewpoint Dewpoint Depression Visibility Wind Speed Wind Dir Waves Ship Positions

Hanjin Ottawa

Last reported at 2014-Sep-21 22:23 UTC. Time now 2014-Oct-01 06:12 UTC.
Position N 49°30' W 128°24'.
Warning: this ship's position is 9 days out of date.

Length 278.8 m; beam 40.3 m; draft 14 m.

Type: Ship. MMSI: 211378360.

Date/timePositionNaut miles runAvg speedWind from/ knotsBaromVisibWave heightAir tempDewpointWater temp
2014-Sep-21 22:23N 49°30' W 128°24'5718.2
2014-Sep-21 19:17N 49°06' W 127°05'1418.6
2014-Sep-21 18:32N 49°01' W 126°46'1919.0
2014-Sep-21 17:33N 48°53' W 126°20'1919.2
2014-Sep-21 16:34N 48°45' W 125°54'1918.6
2014-Sep-21 15:33N 48°37' W 125°28'1818.3
2014-Sep-21 14:33N 48°31' W 125°01'2019.7
2014-Sep-21 13:33N 48°27' W 124°33'2020.1
2014-Sep-21 12:33N 48°20' W 124°04'2020.0
2014-Sep-21 11:34N 48°16' W 123°35'1413.9
2014-Sep-21 10:33N 48°23' W 123°18'1818.1
2014-Sep-21 09:33N 48°41' W 123°16'1313.4
2014-Sep-21 08:33N 48°54' W 123°09'1919.2
2014-Sep-21 07:33N 49°11' W 123°22'1312.6
2014-Sep-21 06:33N 49°18' W 123°06'1 1.2
2014-Sep-21 05:33N 49°17' W 123°05'0 0.0
2014-Sep-21 04:32N 49°17' W 123°05'0 0.0
2014-Sep-21 03:32N 49°17' W 123°05'0 0.0
2014-Sep-21 02:31N 49°17' W 123°05'0 0.0
2014-Sep-21 01:31N 49°17' W 123°05'0 0.0
2014-Sep-21 00:33N 49°17' W 123°05'0 0.0
2014-Sep-20 23:33N 49°17' W 123°05'0 0.0
2014-Sep-20 22:32N 49°17' W 123°05'0 0.0
2014-Sep-20 21:32N 49°17' W 123°05'0 0.0
2014-Sep-20 20:31N 49°17' W 123°05'0 0.0
2014-Sep-20 19:31N 49°17' W 123°05'0 0.0
2014-Sep-20 18:31N 49°17' W 123°05'0 0.0
2014-Sep-20 17:33N 49°17' W 123°05'0 0.0
2014-Sep-20 16:33N 49°17' W 123°05'0 0.0
2014-Sep-20 15:32N 49°17' W 123°05'0 0.0
2014-Sep-20 14:32N 49°17' W 123°05'0 0.0
2014-Sep-20 13:31N 49°17' W 123°05'0 0.0
2014-Sep-20 12:31N 49°17' W 123°05'0 0.0
2014-Sep-20 11:31N 49°17' W 123°05'0 0.0
2014-Sep-20 10:33N 49°17' W 123°05'0 0.0
2014-Sep-20 09:33N 49°17' W 123°05'0 0.0
2014-Sep-20 08:32N 49°17' W 123°05'0 0.0
2014-Sep-20 07:32N 49°17' W 123°05'0 0.0
2014-Sep-20 06:31N 49°17' W 123°05'0 0.0
2014-Sep-20 05:31N 49°17' W 123°05'1 0.7
2014-Sep-20 04:34N 49°18' W 123°05'1010.5
2014-Sep-20 03:33N 49°12' W 123°19'1919.4
2014-Sep-20 02:33N 48°55' W 123°07'1414.1
2014-Sep-20 01:33N 48°42' W 123°15'1918.6
2014-Sep-20 00:33N 48°23' W 123°15'1211.3
2014-Sep-19 23:29N 48°15' W 123°28'1213.1
2014-Sep-19 22:33N 48°13' W 123°47'1414.0
2014-Sep-19 21:33N 48°17' W 124°07'1514.6
2014-Sep-19 20:34N 48°23' W 124°27'1211.7
2014-Sep-19 19:33N 48°28' W 124°43'1212.1
2014-Sep-19 18:33N 48°27' W 125°01'1312.4
2014-Sep-19 17:31N 48°15' W 125°07'12712.7
2014-Sep-19 07:33N 46°14' W 124°15'8 8.3
2014-Sep-19 06:34N 46°16' W 124°03'1110.7
2014-Sep-19 05:33N 46°12' W 123°48'1111.3
2014-Sep-19 04:33N 46°16' W 123°33'5 0.1
2014-Sep-17 02:27N 46°14' W 123°26'1011.2
2014-Sep-17 01:33N 46°15' W 123°40'1111.1
2014-Sep-17 00:33N 46°11' W 123°55'9 9.5
2014-Sep-16 23:33N 46°13' W 124°09'9 8.6
2014-Sep-16 22:32N 46°14' W 124°21'10913.3
2014-Sep-16 14:21N 47°56' W 125°17'10 9.1
2014-Sep-16 13:12N 48°06' W 125°14'6 8.7
2014-Sep-16 12:28N 48°12' W 125°12'8 9.0
2014-Sep-16 11:33N 48°21' W 125°09'9 9.0
2014-Sep-16 10:31N 48°29' W 125°03'6 6.6
2014-Sep-16 09:33N 48°31' W 124°54'1010.4
2014-Sep-16 08:33N 48°29' W 124°38'1111.2
2014-Sep-16 07:33N 48°25' W 124°23'1111.2
2014-Sep-16 06:33N 48°20' W 124°07'1211.6
2014-Sep-16 05:33N 48°17' W 123°50'1110.8
2014-Sep-16 04:33N 48°15' W 123°34'9 9.5
2014-Sep-16 03:33N 48°09' W 123°23'1515.4
2014-Sep-16 02:33N 48°12' W 123°00'1817.5
2014-Sep-16 01:33N 48°03' W 122°38'1818.6
2014-Sep-16 00:34N 47°47' W 122°26'1111.5
2014-Sep-15 23:34N 47°36' W 122°21'0 0.1
2014-Sep-15 22:32N 47°36' W 122°21'0 0.0
2014-Sep-15 17:24N 47°36' W 122°21'0 0.0
2014-Sep-15 16:33N 47°36' W 122°21'0 0.0
2014-Sep-15 15:32N 47°36' W 122°21'0 0.0
2014-Sep-15 14:32N 47°36' W 122°21'0 0.0
2014-Sep-15 13:31N 47°36' W 122°21'0 0.0
2014-Sep-15 12:31N 47°36' W 122°21'0 0.0
2014-Sep-15 11:28N 47°36' W 122°21'0 0.0
2014-Sep-15 10:30N 47°36' W 122°21'0 0.0
2014-Sep-15 09:21N 47°36' W 122°21'0 0.0
2014-Sep-15 08:29N 47°36' W 122°21'0 0.0
2014-Sep-15 07:32N 47°36' W 122°21'0 0.0
2014-Sep-15 06:28N 47°36' W 122°21'0 0.0
2014-Sep-15 05:28N 47°36' W 122°21'0 0.0
2014-Sep-15 04:31N 47°36' W 122°21'0 0.0
2014-Sep-15 03:33N 47°36' W 122°21'0 0.0
2014-Sep-15 02:27N 47°36' W 122°21'0 0.0
2014-Sep-15 01:26N 47°36' W 122°21'0 0.0
2014-Sep-15 00:32N 47°36' W 122°21'0 0.0
2014-Sep-14 23:33N 47°36' W 122°21'0 0.0
2014-Sep-14 22:30N 47°36' W 122°21'0 0.0
2014-Sep-14 21:33N 47°36' W 122°21'0 0.0
2014-Sep-14 20:33N 47°36' W 122°21'0 0.0
2014-Sep-14 19:31N 47°36' W 122°21'0 0.0
2014-Sep-14 18:30N 47°36' W 122°21'0 0.0
2014-Sep-14 17:33N 47°36' W 122°21'0 0.0
2014-Sep-14 16:27N 47°36' W 122°21'0 0.0
2014-Sep-14 15:05N 47°36' W 122°21'0 0.0
2014-Sep-14 14:23N 47°36' W 122°21'0 0.0
2014-Sep-14 13:31N 47°36' W 122°21'0 0.0
2014-Sep-14 12:31N 47°36' W 122°21'0 0.0
2014-Sep-14 11:33N 47°36' W 122°21'0 0.0
2014-Sep-14 10:27N 47°36' W 122°21'0 0.0
2014-Sep-14 09:32N 47°36' W 122°21'0 0.0
2014-Sep-14 08:32N 47°36' W 122°21'0 0.0
2014-Sep-14 07:32N 47°36' W 122°21'1 1.2
2014-Sep-14 06:33N 47°36' W 122°22'1211.7
2014-Sep-14 05:33N 47°47' W 122°27'1918.8
2014-Sep-14 04:34N 48°04' W 122°39'1919.5
2014-Sep-14 03:34N 48°12' W 123°06'1514.3
2014-Sep-14 02:33N 48°11' W 123°28'1211.8
2014-Sep-14 01:33N 48°13' W 123°45'5714.3
2014-Sep-13 21:32N 48°29' W 125°08'1313.6
2014-Sep-13 20:33N 48°36' W 125°25'1414.3
2014-Sep-13 19:33N 48°46' W 125°41'1414.0
2014-Sep-13 18:33N 48°55' W 125°57'1914.8
2014-Sep-13 17:15N 49°07' W 126°20'7 9.9
2014-Sep-13 16:33N 49°12' W 126°28'34815.0
2014-Sep-12 17:21N 54°16' W 131°02'911.2
2014-Sep-12 16:34N 54°17' W 130°47'1615.6
2014-Sep-12 15:33N 54°14' W 130°21'3 3.0
2014-Sep-12 14:32N 54°17' W 130°22'0 0.0
2014-Sep-11 22:29N 54°17' W 130°22'  

Dump ship's entire track history